sensor_id;sensor_type;location;lat;lon;timestamp;pressure;altitude;pressure_sealevel;temperature;humidity
20111;BME280;10216;42.658;23.248;2022-07-23T00:00:45;94030.66;;;20.39;57.64
20111;BME280;10216;42.658;23.248;2022-07-23T00:03:11;94028.72;;;20.35;57.42
20111;BME280;10216;42.658;23.248;2022-07-23T00:05:37;94029.91;;;20.32;57.93
20111;BME280;10216;42.658;23.248;2022-07-23T00:08:02;94029.09;;;20.32;58.26
20111;BME280;10216;42.658;23.248;2022-07-23T00:10:28;94033.16;;;20.27;58.00
20111;BME280;10216;42.658;23.248;2022-07-23T00:12:53;94029.16;;;20.25;58.97
20111;BME280;10216;42.658;23.248;2022-07-23T00:15:19;94039.03;;;20.23;59.32
20111;BME280;10216;42.658;23.248;2022-07-23T00:17:44;94046.47;;;20.19;59.69
20111;BME280;10216;42.658;23.248;2022-07-23T00:20:10;94042.50;;;20.17;59.79
20111;BME280;10216;42.658;23.248;2022-07-23T00:22:35;94043.50;;;20.16;60.37
20111;BME280;10216;42.658;23.248;2022-07-23T00:25:01;94044.13;;;20.11;59.23
20111;BME280;10216;42.658;23.248;2022-07-23T00:27:26;94049.00;;;20.08;59.66
20111;BME280;10216;42.658;23.248;2022-07-23T00:29:54;94044.19;;;20.05;59.36
20111;BME280;10216;42.658;23.248;2022-07-23T00:32:19;94049.84;;;20.02;59.08
20111;BME280;10216;42.658;23.248;2022-07-23T00:34:44;94044.25;;;19.98;58.90
20111;BME280;10216;42.658;23.248;2022-07-23T00:37:10;94049.09;;;19.95;59.34
20111;BME280;10216;42.658;23.248;2022-07-23T00:39:35;94038.28;;;19.91;59.50
20111;BME280;10216;42.658;23.248;2022-07-23T00:42:00;94035.34;;;19.87;59.46
20111;BME280;10216;42.658;23.248;2022-07-23T00:44:27;94035.75;;;19.84;59.53
20111;BME280;10216;42.658;23.248;2022-07-23T00:46:55;94043.19;;;19.81;60.26
20111;BME280;10216;42.658;23.248;2022-07-23T00:49:22;94042.41;;;19.74;60.07
20111;BME280;10216;42.658;23.248;2022-07-23T00:51:48;94041.25;;;19.70;60.31
20111;BME280;10216;42.658;23.248;2022-07-23T00:54:15;94040.09;;;19.66;60.16
20111;BME280;10216;42.658;23.248;2022-07-23T00:56:42;94039.72;;;19.62;60.79
20111;BME280;10216;42.658;23.248;2022-07-23T00:59:08;94043.75;;;19.58;60.41
20111;BME280;10216;42.658;23.248;2022-07-23T01:01:34;94042.78;;;19.53;60.78
20111;BME280;10216;42.658;23.248;2022-07-23T01:03:59;94048.78;;;19.53;61.18
20111;BME280;10216;42.658;23.248;2022-07-23T01:06:24;94039.59;;;19.51;61.20
20111;BME280;10216;42.658;23.248;2022-07-23T01:08:50;94043.41;;;19.48;61.43
20111;BME280;10216;42.658;23.248;2022-07-23T01:11:17;94045.22;;;19.41;61.86
20111;BME280;10216;42.658;23.248;2022-07-23T01:13:43;94041.44;;;19.37;61.86
20111;BME280;10216;42.658;23.248;2022-07-23T01:16:09;94040.84;;;19.35;61.96
20111;BME280;10216;42.658;23.248;2022-07-23T01:18:35;94032.44;;;19.33;61.86
20111;BME280;10216;42.658;23.248;2022-07-23T01:21:01;94031.06;;;19.30;62.22
20111;BME280;10216;42.658;23.248;2022-07-23T01:23:27;94034.28;;;19.26;62.57
20111;BME280;10216;42.658;23.248;2022-07-23T01:25:53;94028.13;;;19.20;62.33
20111;BME280;10216;42.658;23.248;2022-07-23T01:28:19;94031.53;;;19.21;62.21
20111;BME280;10216;42.658;23.248;2022-07-23T01:30:45;94026.72;;;19.18;62.86
20111;BME280;10216;42.658;23.248;2022-07-23T01:33:11;94030.75;;;19.14;62.43
20111;BME280;10216;42.658;23.248;2022-07-23T01:35:36;94034.38;;;19.13;63.00
20111;BME280;10216;42.658;23.248;2022-07-23T01:38:02;94026.75;;;19.11;62.90
20111;BME280;10216;42.658;23.248;2022-07-23T01:40:27;94031.16;;;19.10;63.37
20111;BME280;10216;42.658;23.248;2022-07-23T01:42:53;94034.78;;;19.09;63.61
20111;BME280;10216;42.658;23.248;2022-07-23T01:45:18;94028.19;;;19.07;63.13
20111;BME280;10216;42.658;23.248;2022-07-23T01:47:44;94034.81;;;19.03;62.87
20111;BME280;10216;42.658;23.248;2022-07-23T01:50:09;94029.22;;;18.99;63.19
20111;BME280;10216;42.658;23.248;2022-07-23T01:52:35;94029.63;;;18.96;63.20
20111;BME280;10216;42.658;23.248;2022-07-23T01:55:00;94029.25;;;18.93;63.33
20111;BME280;10216;42.658;23.248;2022-07-23T01:57:26;94033.06;;;18.90;63.73
20111;BME280;10216;42.658;23.248;2022-07-23T01:59:51;94031.66;;;18.88;63.99
20111;BME280;10216;42.658;23.248;2022-07-23T02:02:16;94032.28;;;18.83;64.81
20111;BME280;10216;42.658;23.248;2022-07-23T02:04:44;94034.28;;;18.81;64.59
20111;BME280;10216;42.658;23.248;2022-07-23T02:07:09;94033.91;;;18.78;64.59
20111;BME280;10216;42.658;23.248;2022-07-23T02:09:34;94034.13;;;18.76;64.79
20111;BME280;10216;42.658;23.248;2022-07-23T02:12:00;94035.75;;;18.70;65.00
20111;BME280;10216;42.658;23.248;2022-07-23T02:14:26;94038.53;;;18.69;65.06
20111;BME280;10216;42.658;23.248;2022-07-23T02:16:54;94033.75;;;18.66;65.19
20111;BME280;10216;42.658;23.248;2022-07-23T02:19:20;94033.16;;;18.64;65.30
20111;BME280;10216;42.658;23.248;2022-07-23T02:21:46;94035.34;;;18.67;64.90
20111;BME280;10216;42.658;23.248;2022-07-23T02:24:11;94030.13;;;18.67;63.84
20111;BME280;10216;42.658;23.248;2022-07-23T02:26:36;94027.97;;;18.64;63.23
20111;BME280;10216;42.658;23.248;2022-07-23T02:29:05;94025.38;;;18.64;63.77
20111;BME280;10216;42.658;23.248;2022-07-23T02:31:31;94024.75;;;18.62;64.10
20111;BME280;10216;42.658;23.248;2022-07-23T02:33:57;94036.56;;;18.64;62.91
20111;BME280;10216;42.658;23.248;2022-07-23T02:36:22;94032.56;;;18.62;62.60
20111;BME280;10216;42.658;23.248;2022-07-23T02:38:47;94031.75;;;18.61;61.74
20111;BME280;10216;42.658;23.248;2022-07-23T02:41:13;94032.97;;;18.59;62.75
20111;BME280;10216;42.658;23.248;2022-07-23T02:43:38;94035.78;;;18.57;61.69
20111;BME280;10216;42.658;23.248;2022-07-23T02:46:04;94030.38;;;18.59;61.01
20111;BME280;10216;42.658;23.248;2022-07-23T02:48:29;94031.38;;;18.58;60.99
20111;BME280;10216;42.658;23.248;2022-07-23T02:50:55;94033.75;;;18.59;60.48
20111;BME280;10216;42.658;23.248;2022-07-23T02:53:22;94041.78;;;18.58;60.56
20111;BME280;10216;42.658;23.248;2022-07-23T02:55:47;94039.38;;;18.56;61.00
20111;BME280;10216;42.658;23.248;2022-07-23T02:58:14;94035.34;;;18.54;60.57
20111;BME280;10216;42.658;23.248;2022-07-23T03:00:39;94040.56;;;18.54;60.48
20111;BME280;10216;42.658;23.248;2022-07-23T03:03:04;94047.34;;;18.55;61.72
20111;BME280;10216;42.658;23.248;2022-07-23T03:05:30;94050.16;;;18.53;62.20
20111;BME280;10216;42.658;23.248;2022-07-23T03:07:55;94054.78;;;18.51;61.72
20111;BME280;10216;42.658;23.248;2022-07-23T03:10:21;94051.78;;;18.48;61.90
20111;BME280;10216;42.658;23.248;2022-07-23T03:12:46;94049.38;;;18.40;61.62
20111;BME280;10216;42.658;23.248;2022-07-23T03:15:11;94051.00;;;18.34;62.43
20111;BME280;10216;42.658;23.248;2022-07-23T03:17:37;94068.78;;;18.30;62.46
20111;BME280;10216;42.658;23.248;2022-07-23T03:20:02;94072.00;;;18.26;62.67
20111;BME280;10216;42.658;23.248;2022-07-23T03:22:28;94065.63;;;18.22;63.08
20111;BME280;10216;42.658;23.248;2022-07-23T03:24:53;94066.81;;;18.19;63.12
20111;BME280;10216;42.658;23.248;2022-07-23T03:27:19;94074.81;;;18.18;64.00
20111;BME280;10216;42.658;23.248;2022-07-23T03:29:45;94073.44;;;18.15;64.10
20111;BME280;10216;42.658;23.248;2022-07-23T03:32:10;94070.22;;;18.13;64.25
20111;BME280;10216;42.658;23.248;2022-07-23T03:34:36;94073.81;;;18.12;64.09
20111;BME280;10216;42.658;23.248;2022-07-23T03:37:01;94070.63;;;18.10;64.26
20111;BME280;10216;42.658;23.248;2022-07-23T03:39:27;94075.41;;;18.13;64.80
20111;BME280;10216;42.658;23.248;2022-07-23T03:41:52;94075.00;;;18.16;64.69
20111;BME280;10216;42.658;23.248;2022-07-23T03:44:18;94080.81;;;18.18;65.04
20111;BME280;10216;42.658;23.248;2022-07-23T03:46:43;94084.41;;;18.24;65.16
20111;BME280;10216;42.658;23.248;2022-07-23T03:49:09;94078.00;;;18.26;66.35
20111;BME280;10216;42.658;23.248;2022-07-23T03:51:34;94079.81;;;18.26;65.77
20111;BME280;10216;42.658;23.248;2022-07-23T03:54:00;94075.59;;;18.31;66.08
20111;BME280;10216;42.658;23.248;2022-07-23T03:56:25;94079.19;;;18.37;66.53
20111;BME280;10216;42.658;23.248;2022-07-23T03:58:51;94077.00;;;18.41;67.89
20111;BME280;10216;42.658;23.248;2022-07-23T04:01:16;94080.78;;;18.45;67.53
20111;BME280;10216;42.658;23.248;2022-07-23T04:03:42;94072.97;;;18.45;67.57
20111;BME280;10216;42.658;23.248;2022-07-23T04:06:07;94073.78;;;18.45;68.22
20111;BME280;10216;42.658;23.248;2022-07-23T04:08:33;94070.97;;;18.47;68.28
20111;BME280;10216;42.658;23.248;2022-07-23T04:10:58;94073.56;;;18.53;68.76
20111;BME280;10216;42.658;23.248;2022-07-23T04:13:24;94076.97;;;18.60;68.69
20111;BME280;10216;42.658;23.248;2022-07-23T04:15:49;94075.16;;;18.67;69.56
20111;BME280;10216;42.658;23.248;2022-07-23T04:18:16;94075.56;;;18.71;70.52
20111;BME280;10216;42.658;23.248;2022-07-23T04:20:43;94079.75;;;18.79;70.78
20111;BME280;10216;42.658;23.248;2022-07-23T04:23:08;94084.94;;;18.85;71.06
20111;BME280;10216;42.658;23.248;2022-07-23T04:25:35;94088.50;;;18.91;70.89
20111;BME280;10216;42.658;23.248;2022-07-23T04:28:00;94092.69;;;18.98;71.14
20111;BME280;10216;42.658;23.248;2022-07-23T04:30:26;94094.47;;;19.04;70.97
20111;BME280;10216;42.658;23.248;2022-07-23T04:32:51;94094.63;;;19.09;70.21
20111;BME280;10216;42.658;23.248;2022-07-23T04:35:16;94095.84;;;19.14;70.23
20111;BME280;10216;42.658;23.248;2022-07-23T04:37:42;94097.00;;;19.18;69.33
20111;BME280;10216;42.658;23.248;2022-07-23T04:40:08;94085.19;;;19.22;69.26
20111;BME280;10216;42.658;23.248;2022-07-23T04:42:33;94096.78;;;19.26;68.79
20111;BME280;10216;42.658;23.248;2022-07-23T04:44:59;94092.16;;;19.28;69.28
20111;BME280;10216;42.658;23.248;2022-07-23T04:47:24;94101.16;;;19.32;70.68
20111;BME280;10216;42.658;23.248;2022-07-23T04:49:49;94096.69;;;19.39;69.62
20111;BME280;10216;42.658;23.248;2022-07-23T04:52:15;94101.50;;;19.48;68.53
20111;BME280;10216;42.658;23.248;2022-07-23T04:54:40;94099.28;;;19.52;67.65
20111;BME280;10216;42.658;23.248;2022-07-23T04:57:05;94105.47;;;19.58;68.33
20111;BME280;10216;42.658;23.248;2022-07-23T04:59:31;94099.03;;;19.60;68.92
20111;BME280;10216;42.658;23.248;2022-07-23T05:01:56;94098.22;;;19.66;69.23
20111;BME280;10216;42.658;23.248;2022-07-23T05:04:22;94106.78;;;19.73;68.18
20111;BME280;10216;42.658;23.248;2022-07-23T05:06:47;94103.34;;;19.79;65.74
20111;BME280;10216;42.658;23.248;2022-07-23T05:09:12;94105.25;;;19.91;66.60
20111;BME280;10216;42.658;23.248;2022-07-23T05:11:38;94102.59;;;19.97;62.77
20111;BME280;10216;42.658;23.248;2022-07-23T05:14:03;94100.53;;;20.06;62.61
20111;BME280;10216;42.658;23.248;2022-07-23T05:16:29;94108.69;;;20.16;62.83
20111;BME280;10216;42.658;23.248;2022-07-23T05:18:55;94111.25;;;20.22;63.21
20111;BME280;10216;42.658;23.248;2022-07-23T05:21:20;94108.59;;;20.29;62.48
20111;BME280;10216;42.658;23.248;2022-07-23T05:23:45;94111.75;;;20.38;62.67
20111;BME280;10216;42.658;23.248;2022-07-23T05:26:11;94109.09;;;20.44;60.92
20111;BME280;10216;42.658;23.248;2022-07-23T05:28:39;94110.38;;;20.53;60.75
20111;BME280;10216;42.658;23.248;2022-07-23T05:31:04;94113.09;;;20.65;62.66
20111;BME280;10216;42.658;23.248;2022-07-23T05:33:30;94107.81;;;20.72;62.42
20111;BME280;10216;42.658;23.248;2022-07-23T05:36:03;94107.75;;;20.78;60.57
20111;BME280;10216;42.658;23.248;2022-07-23T05:38:29;94110.44;;;20.90;60.31
20111;BME280;10216;42.658;23.248;2022-07-23T05:40:54;94120.81;;;20.96;59.08
20111;BME280;10216;42.658;23.248;2022-07-23T05:43:20;94110.06;;;21.04;59.16
20111;BME280;10216;42.658;23.248;2022-07-23T05:45:45;94122.00;;;21.19;60.01
20111;BME280;10216;42.658;23.248;2022-07-23T05:48:11;94118.88;;;21.28;59.32
20111;BME280;10216;42.658;23.248;2022-07-23T05:50:36;94117.91;;;21.41;60.07
20111;BME280;10216;42.658;23.248;2022-07-23T05:53:01;94113.91;;;21.57;59.28
20111;BME280;10216;42.658;23.248;2022-07-23T05:55:27;94109.97;;;21.66;57.68
20111;BME280;10216;42.658;23.248;2022-07-23T05:57:55;94115.38;;;21.83;58.22
20111;BME280;10216;42.658;23.248;2022-07-23T06:00:21;94117.00;;;21.95;59.10
20111;BME280;10216;42.658;23.248;2022-07-23T06:02:46;94110.91;;;22.01;59.55
20111;BME280;10216;42.658;23.248;2022-07-23T06:05:12;94111.28;;;22.16;59.09
20111;BME280;10216;42.658;23.248;2022-07-23T06:07:39;94101.94;;;22.20;58.01
20111;BME280;10216;42.658;23.248;2022-07-23T06:10:05;94101.06;;;22.38;59.26
20111;BME280;10216;42.658;23.248;2022-07-23T06:12:31;94102.22;;;22.54;58.43
20111;BME280;10216;42.658;23.248;2022-07-23T06:14:56;94103.22;;;22.65;58.28
20111;BME280;10216;42.658;23.248;2022-07-23T06:17:22;94107.81;;;22.81;57.39
20111;BME280;10216;42.658;23.248;2022-07-23T06:19:47;94108.69;;;22.98;56.76
20111;BME280;10216;42.658;23.248;2022-07-23T06:22:13;94108.09;;;23.08;56.58
20111;BME280;10216;42.658;23.248;2022-07-23T06:24:38;94105.81;;;23.23;55.11
20111;BME280;10216;42.658;23.248;2022-07-23T06:27:04;94112.72;;;23.41;56.10
20111;BME280;10216;42.658;23.248;2022-07-23T06:29:29;94104.38;;;23.55;55.38
20111;BME280;10216;42.658;23.248;2022-07-23T06:31:54;94107.19;;;23.65;54.64
20111;BME280;10216;42.658;23.248;2022-07-23T06:34:20;94106.19;;;23.83;54.57
20111;BME280;10216;42.658;23.248;2022-07-23T06:36:45;94105.66;;;23.98;54.38
20111;BME280;10216;42.658;23.248;2022-07-23T06:39:10;94111.94;;;24.13;53.19
20111;BME280;10216;42.658;23.248;2022-07-23T06:41:36;94112.38;;;24.22;52.32
20111;BME280;10216;42.658;23.248;2022-07-23T06:44:01;94117.00;;;24.32;52.48
20111;BME280;10216;42.658;23.248;2022-07-23T06:46:27;94112.25;;;24.45;51.12
20111;BME280;10216;42.658;23.248;2022-07-23T06:48:52;94106.66;;;24.59;51.76
20111;BME280;10216;42.658;23.248;2022-07-23T06:51:17;94111.34;;;24.73;52.36
20111;BME280;10216;42.658;23.248;2022-07-23T06:53:43;94105.13;;;24.96;51.05
20111;BME280;10216;42.658;23.248;2022-07-23T06:56:08;94109.84;;;25.16;51.60
20111;BME280;10216;42.658;23.248;2022-07-23T06:58:34;94105.72;;;25.42;51.53
20111;BME280;10216;42.658;23.248;2022-07-23T07:00:59;94112.72;;;25.58;50.61
20111;BME280;10216;42.658;23.248;2022-07-23T07:03:25;94107.03;;;25.66;48.32
20111;BME280;10216;42.658;23.248;2022-07-23T07:05:50;94111.16;;;25.79;50.11
20111;BME280;10216;42.658;23.248;2022-07-23T07:08:15;94114.63;;;25.84;50.05
20111;BME280;10216;42.658;23.248;2022-07-23T07:10:41;94113.66;;;25.95;48.33
20111;BME280;10216;42.658;23.248;2022-07-23T07:13:06;94107.53;;;26.17;47.90
20111;BME280;10216;42.658;23.248;2022-07-23T07:15:32;94101.72;;;26.41;48.02
20111;BME280;10216;42.658;23.248;2022-07-23T07:17:57;94099.47;;;26.60;48.44
20111;BME280;10216;42.658;23.248;2022-07-23T07:20:23;94101.19;;;26.76;47.72
20111;BME280;10216;42.658;23.248;2022-07-23T07:22:49;94101.88;;;26.99;47.39
20111;BME280;10216;42.658;23.248;2022-07-23T07:25:15;94099.78;;;27.01;46.27
20111;BME280;10216;42.658;23.248;2022-07-23T07:27:43;94093.47;;;27.07;47.39
20111;BME280;10216;42.658;23.248;2022-07-23T07:30:12;94087.69;;;27.10;47.13
20111;BME280;10216;42.658;23.248;2022-07-23T07:32:38;94088.84;;;27.34;47.56
20111;BME280;10216;42.658;23.248;2022-07-23T07:35:04;94093.66;;;27.47;46.67
20111;BME280;10216;42.658;23.248;2022-07-23T07:37:30;94093.47;;;27.59;48.05
20111;BME280;10216;42.658;23.248;2022-07-23T07:39:55;94089.53;;;27.72;44.52
20111;BME280;10216;42.658;23.248;2022-07-23T07:42:20;94088.75;;;27.81;44.89
20111;BME280;10216;42.658;23.248;2022-07-23T07:44:46;94090.63;;;27.96;45.37
20111;BME280;10216;42.658;23.248;2022-07-23T07:47:11;94096.50;;;28.28;46.35
20111;BME280;10216;42.658;23.248;2022-07-23T07:49:37;94094.66;;;28.54;46.31
20111;BME280;10216;42.658;23.248;2022-07-23T07:52:03;94090.66;;;28.82;45.48
20111;BME280;10216;42.658;23.248;2022-07-23T07:54:28;94091.72;;;29.01;44.72
20111;BME280;10216;42.658;23.248;2022-07-23T07:56:53;94086.88;;;29.19;45.25
20111;BME280;10216;42.658;23.248;2022-07-23T07:59:19;94086.03;;;29.33;43.23
20111;BME280;10216;42.658;23.248;2022-07-23T08:01:44;94084.13;;;29.54;44.62
20111;BME280;10216;42.658;23.248;2022-07-23T08:04:09;94089.91;;;29.61;43.84
20111;BME280;10216;42.658;23.248;2022-07-23T08:06:35;94088.66;;;29.98;41.90
20111;BME280;10216;42.658;23.248;2022-07-23T08:09:00;94094.75;;;29.98;43.02
20111;BME280;10216;42.658;23.248;2022-07-23T08:11:26;94087.59;;;30.38;43.50
20111;BME280;10216;42.658;23.248;2022-07-23T08:13:51;94086.59;;;30.91;42.26
20111;BME280;10216;42.658;23.248;2022-07-23T08:16:18;94087.03;;;31.27;41.21
20111;BME280;10216;42.658;23.248;2022-07-23T08:18:43;94084.03;;;31.58;40.83
20111;BME280;10216;42.658;23.248;2022-07-23T08:21:09;94086.69;;;31.82;39.83
20111;BME280;10216;42.658;23.248;2022-07-23T08:23:34;94098.44;;;31.94;39.47
20111;BME280;10216;42.658;23.248;2022-07-23T08:26:00;94092.25;;;31.99;37.83
20111;BME280;10216;42.658;23.248;2022-07-23T08:28:29;94085.22;;;32.08;39.33
20111;BME280;10216;42.658;23.248;2022-07-23T08:31:00;94082.66;;;32.40;37.38
20111;BME280;10216;42.658;23.248;2022-07-23T08:33:26;94080.44;;;32.61;36.95
20111;BME280;10216;42.658;23.248;2022-07-23T08:35:51;94087.59;;;32.79;36.94
20111;BME280;10216;42.658;23.248;2022-07-23T08:38:21;94084.59;;;33.13;37.83
20111;BME280;10216;42.658;23.248;2022-07-23T08:40:54;94087.09;;;33.37;36.59
20111;BME280;10216;42.658;23.248;2022-07-23T08:43:22;94089.25;;;33.76;35.53
20111;BME280;10216;42.658;23.248;2022-07-23T08:45:50;94089.41;;;34.52;35.86
20111;BME280;10216;42.658;23.248;2022-07-23T08:48:17;94087.31;;;35.15;33.85
20111;BME280;10216;42.658;23.248;2022-07-23T08:50:46;94089.91;;;35.38;34.01
20111;BME280;10216;42.658;23.248;2022-07-23T08:53:12;94080.94;;;35.73;32.52
20111;BME280;10216;42.658;23.248;2022-07-23T08:55:43;94083.16;;;36.06;32.44
20111;BME280;10216;42.658;23.248;2022-07-23T08:58:09;94081.16;;;36.28;31.09
20111;BME280;10216;42.658;23.248;2022-07-23T09:00:35;94086.81;;;36.44;32.43
20111;BME280;10216;42.658;23.248;2022-07-23T09:03:00;94081.47;;;36.18;32.24
20111;BME280;10216;42.658;23.248;2022-07-23T09:05:25;94079.25;;;36.20;30.40
20111;BME280;10216;42.658;23.248;2022-07-23T09:08:13;94088.44;;;37.09;31.88
20111;BME280;10216;42.658;23.248;2022-07-23T09:13:33;94083.34;;;37.63;30.49
20111;BME280;10216;42.658;23.248;2022-07-23T09:16:16;94075.00;;;37.56;30.92
20111;BME280;10216;42.658;23.248;2022-07-23T09:18:53;94078.09;;;37.96;31.39
20111;BME280;10216;42.658;23.248;2022-07-23T09:21:25;94075.00;;;37.56;29.31
20111;BME280;10216;42.658;23.248;2022-07-23T09:31:22;94073.53;;;37.96;28.06
20111;BME280;10216;42.658;23.248;2022-07-23T09:33:48;94076.50;;;37.74;28.06
20111;BME280;10216;42.658;23.248;2022-07-23T09:36:13;94072.56;;;39.08;28.44
20111;BME280;10216;42.658;23.248;2022-07-23T09:38:50;94070.22;;;39.92;26.91
20111;BME280;10216;42.658;23.248;2022-07-23T09:41:15;94067.00;;;39.62;25.41
20111;BME280;10216;42.658;23.248;2022-07-23T09:43:41;94065.88;;;39.38;26.20
20111;BME280;10216;42.658;23.248;2022-07-23T09:46:27;94062.06;;;40.68;25.55
20111;BME280;10216;42.658;23.248;2022-07-23T09:48:56;94061.69;;;41.45;23.74
20111;BME280;10216;42.658;23.248;2022-07-23T09:51:23;94069.38;;;41.93;25.37
20111;BME280;10216;42.658;23.248;2022-07-23T09:53:51;94060.28;;;42.36;24.27
20111;BME280;10216;42.658;23.248;2022-07-23T09:56:17;94061.38;;;42.16;23.45
20111;BME280;10216;42.658;23.248;2022-07-23T09:58:43;94053.44;;;42.04;23.17
20111;BME280;10216;42.658;23.248;2022-07-23T10:01:13;94057.88;;;41.96;24.30
20111;BME280;10216;42.658;23.248;2022-07-23T10:03:40;94055.78;;;42.63;24.82
20111;BME280;10216;42.658;23.248;2022-07-23T10:06:08;94061.00;;;43.37;23.55
20111;BME280;10216;42.658;23.248;2022-07-23T10:08:34;94059.19;;;43.93;23.32
20111;BME280;10216;42.658;23.248;2022-07-23T10:11:00;94058.25;;;43.59;22.00
20111;BME280;10216;42.658;23.248;2022-07-23T10:13:27;94052.09;;;42.52;21.81
20111;BME280;10216;42.658;23.248;2022-07-23T10:16:11;94055.16;;;43.57;22.89
20111;BME280;10216;42.658;23.248;2022-07-23T10:18:37;94055.81;;;44.67;22.99
20111;BME280;10216;42.658;23.248;2022-07-23T10:21:06;94052.72;;;45.02;20.88
20111;BME280;10216;42.658;23.248;2022-07-23T10:23:48;94047.31;;;44.05;21.48
20111;BME280;10216;42.658;23.248;2022-07-23T10:26:27;94042.19;;;44.93;20.23
20111;BME280;10216;42.658;23.248;2022-07-23T10:29:09;94045.09;;;45.62;20.39
20111;BME280;10216;42.658;23.248;2022-07-23T10:34:14;94042.44;;;45.69;20.19
20111;BME280;10216;42.658;23.248;2022-07-23T10:36:51;94042.69;;;44.69;19.50
20111;BME280;10216;42.658;23.248;2022-07-23T10:39:23;94034.69;;;45.20;19.61
20111;BME280;10216;42.658;23.248;2022-07-23T10:41:50;94033.31;;;45.99;18.87
20111;BME280;10216;42.658;23.248;2022-07-23T10:44:18;94033.38;;;46.09;20.50
20111;BME280;10216;42.658;23.248;2022-07-23T10:47:03;94032.69;;;46.27;19.95
20111;BME280;10216;42.658;23.248;2022-07-23T10:49:44;94031.31;;;46.79;19.98
20111;BME280;10216;42.658;23.248;2022-07-23T10:54:39;94023.72;;;46.19;19.27
20111;BME280;10216;42.658;23.248;2022-07-23T10:59:32;94021.31;;;47.54;18.84
20111;BME280;10216;42.658;23.248;2022-07-23T11:02:21;94017.38;;;47.90;18.82
20111;BME280;10216;42.658;23.248;2022-07-23T11:04:52;94018.75;;;48.44;18.71
20111;BME280;10216;42.658;23.248;2022-07-23T11:07:18;94011.97;;;49.33;17.99
20111;BME280;10216;42.658;23.248;2022-07-23T11:09:43;94013.94;;;49.73;18.50
20111;BME280;10216;42.658;23.248;2022-07-23T11:14:58;94006.81;;;49.42;19.59
20111;BME280;10216;42.658;23.248;2022-07-23T11:17:25;94001.41;;;49.35;17.67
20111;BME280;10216;42.658;23.248;2022-07-23T11:22:36;94006.13;;;49.72;16.53
20111;BME280;10216;42.658;23.248;2022-07-23T11:25:02;94003.97;;;49.93;17.13
20111;BME280;10216;42.658;23.248;2022-07-23T11:27:41;93993.00;;;49.59;15.21
20111;BME280;10216;42.658;23.248;2022-07-23T11:30:09;93983.28;;;49.07;18.99
20111;BME280;10216;42.658;23.248;2022-07-23T11:32:40;93989.09;;;50.32;17.23
20111;BME280;10216;42.658;23.248;2022-07-23T11:35:33;93994.38;;;51.03;15.67
20111;BME280;10216;42.658;23.248;2022-07-23T11:38:19;93998.22;;;51.33;15.67
20111;BME280;10216;42.658;23.248;2022-07-23T11:40:51;93992.25;;;50.88;16.79
20111;BME280;10216;42.658;23.248;2022-07-23T11:43:17;93991.09;;;50.58;14.64
20111;BME280;10216;42.658;23.248;2022-07-23T11:45:48;93983.38;;;50.53;14.92
20111;BME280;10216;42.658;23.248;2022-07-23T11:48:23;93982.94;;;51.35;15.90
20111;BME280;10216;42.658;23.248;2022-07-23T11:50:51;93988.63;;;52.31;16.36
20111;BME280;10216;42.658;23.248;2022-07-23T11:53:23;93982.22;;;52.89;15.20
20111;BME280;10216;42.658;23.248;2022-07-23T11:55:49;93975.38;;;53.14;15.43
20111;BME280;10216;42.658;23.248;2022-07-23T11:58:15;93978.47;;;52.99;14.55
20111;BME280;10216;42.658;23.248;2022-07-23T12:00:41;93979.31;;;52.05;13.22
20111;BME280;10216;42.658;23.248;2022-07-23T12:03:07;93978.69;;;51.54;15.43
20111;BME280;10216;42.658;23.248;2022-07-23T12:05:37;93968.00;;;50.32;14.53
20111;BME280;10216;42.658;23.248;2022-07-23T12:08:05;93965.63;;;50.34;15.28
20111;BME280;10216;42.658;23.248;2022-07-23T12:10:43;93961.25;;;49.35;16.07
20111;BME280;10216;42.658;23.248;2022-07-23T12:13:16;93946.75;;;48.28;16.30
20111;BME280;10216;42.658;23.248;2022-07-23T12:15:51;93938.06;;;47.53;16.90
20111;BME280;10216;42.658;23.248;2022-07-23T12:18:19;93944.69;;;46.74;16.26
20111;BME280;10216;42.658;23.248;2022-07-23T12:20:48;93932.16;;;46.23;20.11
20111;BME280;10216;42.658;23.248;2022-07-23T12:23:16;93926.69;;;45.43;18.07
20111;BME280;10216;42.658;23.248;2022-07-23T12:25:43;93922.72;;;44.76;17.22
20111;BME280;10216;42.658;23.248;2022-07-23T12:28:15;93911.72;;;44.24;19.71
20111;BME280;10216;42.658;23.248;2022-07-23T12:33:09;93910.13;;;44.57;20.54
20111;BME280;10216;42.658;23.248;2022-07-23T12:35:38;93910.41;;;44.85;19.88
20111;BME280;10216;42.658;23.248;2022-07-23T12:38:08;93906.59;;;44.53;20.44
20111;BME280;10216;42.658;23.248;2022-07-23T12:40:37;93907.44;;;44.60;19.42
20111;BME280;10216;42.658;23.248;2022-07-23T12:43:09;93900.78;;;44.51;19.54
20111;BME280;10216;42.658;23.248;2022-07-23T12:46:04;93899.66;;;44.52;18.08
20111;BME280;10216;42.658;23.248;2022-07-23T12:48:29;93891.81;;;44.43;18.12
20111;BME280;10216;42.658;23.248;2022-07-23T12:53:31;93899.03;;;45.89;17.65
20111;BME280;10216;42.658;23.248;2022-07-23T12:56:04;93907.00;;;47.11;16.96
20111;BME280;10216;42.658;23.248;2022-07-23T13:03:55;93907.81;;;48.86;14.87
20111;BME280;10216;42.658;23.248;2022-07-23T13:06:21;93909.56;;;49.07;15.16
20111;BME280;10216;42.658;23.248;2022-07-23T13:08:46;93908.44;;;49.45;15.42
20111;BME280;10216;42.658;23.248;2022-07-23T13:11:12;93910.25;;;50.27;14.87
20111;BME280;10216;42.658;23.248;2022-07-23T13:13:38;93909.78;;;51.32;16.66
20111;BME280;10216;42.658;23.248;2022-07-23T13:16:05;93905.44;;;51.35;15.36
20111;BME280;10216;42.658;23.248;2022-07-23T13:18:31;93911.09;;;51.24;14.92
20111;BME280;10216;42.658;23.248;2022-07-23T13:20:57;93908.69;;;50.79;14.21
20111;BME280;10216;42.658;23.248;2022-07-23T13:23:22;93905.56;;;49.97;14.57